sensor_id;sensor_type;location;lat;lon;timestamp;P1;durP1;ratioP1;P2;durP2;ratioP2
30185;SDS011;31152;49.190;8.122;2022-12-18T00:01:24;80.30;;;25.08;;
30185;SDS011;31152;49.190;8.122;2022-12-18T00:03:57;81.32;;;23.25;;
30185;SDS011;31152;49.190;8.122;2022-12-18T00:06:27;82.15;;;24.52;;
30185;SDS011;31152;49.190;8.122;2022-12-18T00:08:58;85.53;;;25.75;;
30185;SDS011;31152;49.190;8.122;2022-12-18T00:11:29;80.65;;;25.35;;
30185;SDS011;31152;49.190;8.122;2022-12-18T00:13:59;89.43;;;26.23;;
30185;SDS011;31152;49.190;8.122;2022-12-18T00:16:27;84.95;;;24.67;;
30185;SDS011;31152;49.190;8.122;2022-12-18T00:18:55;84.72;;;25.10;;
30185;SDS011;31152;49.190;8.122;2022-12-18T00:21:22;83.32;;;25.45;;
30185;SDS011;31152;49.190;8.122;2022-12-18T00:23:49;96.97;;;27.92;;
30185;SDS011;31152;49.190;8.122;2022-12-18T00:26:17;82.40;;;25.13;;
30185;SDS011;31152;49.190;8.122;2022-12-18T00:28:46;86.30;;;26.55;;
30185;SDS011;31152;49.190;8.122;2022-12-18T00:31:14;87.55;;;26.23;;
30185;SDS011;31152;49.190;8.122;2022-12-18T00:33:43;96.25;;;27.23;;
30185;SDS011;31152;49.190;8.122;2022-12-18T00:36:14;84.50;;;25.90;;
30185;SDS011;31152;49.190;8.122;2022-12-18T00:38:47;87.85;;;27.40;;
30185;SDS011;31152;49.190;8.122;2022-12-18T00:41:15;87.63;;;27.15;;
30185;SDS011;31152;49.190;8.122;2022-12-18T00:44:02;90.95;;;27.02;;
30185;SDS011;31152;49.190;8.122;2022-12-18T00:46:29;92.07;;;27.13;;
30185;SDS011;31152;49.190;8.122;2022-12-18T00:48:58;98.82;;;29.00;;
30185;SDS011;31152;49.190;8.122;2022-12-18T00:51:25;97.70;;;28.38;;
30185;SDS011;31152;49.190;8.122;2022-12-18T00:53:52;97.10;;;26.92;;
30185;SDS011;31152;49.190;8.122;2022-12-18T00:56:21;87.97;;;26.90;;
30185;SDS011;31152;49.190;8.122;2022-12-18T00:58:49;104.63;;;29.88;;
30185;SDS011;31152;49.190;8.122;2022-12-18T01:01:16;98.03;;;26.83;;
30185;SDS011;31152;49.190;8.122;2022-12-18T01:03:46;96.68;;;27.30;;
30185;SDS011;31152;49.190;8.122;2022-12-18T01:06:13;104.55;;;28.27;;
30185;SDS011;31152;49.190;8.122;2022-12-18T01:08:40;90.53;;;26.83;;
30185;SDS011;31152;49.190;8.122;2022-12-18T01:11:08;93.13;;;26.60;;
30185;SDS011;31152;49.190;8.122;2022-12-18T01:13:38;97.50;;;27.98;;
30185;SDS011;31152;49.190;8.122;2022-12-18T01:16:06;92.28;;;27.13;;
30185;SDS011;31152;49.190;8.122;2022-12-18T01:18:33;86.85;;;26.83;;
30185;SDS011;31152;49.190;8.122;2022-12-18T01:21:02;80.68;;;26.48;;
30185;SDS011;31152;49.190;8.122;2022-12-18T01:23:35;84.88;;;26.50;;
30185;SDS011;31152;49.190;8.122;2022-12-18T01:26:10;107.50;;;27.17;;
30185;SDS011;31152;49.190;8.122;2022-12-18T01:28:39;96.95;;;28.27;;
30185;SDS011;31152;49.190;8.122;2022-12-18T01:31:10;92.22;;;27.63;;
30185;SDS011;31152;49.190;8.122;2022-12-18T01:33:40;90.28;;;27.13;;
30185;SDS011;31152;49.190;8.122;2022-12-18T01:36:07;93.95;;;27.17;;
30185;SDS011;31152;49.190;8.122;2022-12-18T01:38:34;90.57;;;27.67;;
30185;SDS011;31152;49.190;8.122;2022-12-18T01:41:01;88.10;;;27.52;;
30185;SDS011;31152;49.190;8.122;2022-12-18T01:46:27;95.20;;;27.60;;
30185;SDS011;31152;49.190;8.122;2022-12-18T01:48:57;92.80;;;26.98;;
30185;SDS011;31152;49.190;8.122;2022-12-18T01:51:28;95.07;;;27.17;;
30185;SDS011;31152;49.190;8.122;2022-12-18T01:53:59;87.60;;;27.75;;
30185;SDS011;31152;49.190;8.122;2022-12-18T01:56:26;91.70;;;28.65;;
30185;SDS011;31152;49.190;8.122;2022-12-18T01:58:54;95.20;;;27.05;;
30185;SDS011;31152;49.190;8.122;2022-12-18T02:01:28;96.03;;;28.75;;
30185;SDS011;31152;49.190;8.122;2022-12-18T02:04:10;93.10;;;26.95;;
30185;SDS011;31152;49.190;8.122;2022-12-18T02:06:57;91.90;;;27.33;;
30185;SDS011;31152;49.190;8.122;2022-12-18T02:09:38;88.93;;;27.08;;
30185;SDS011;31152;49.190;8.122;2022-12-18T02:17:47;88.80;;;27.52;;
30185;SDS011;31152;49.190;8.122;2022-12-18T02:20:36;89.30;;;27.83;;
30185;SDS011;31152;49.190;8.122;2022-12-18T02:26:14;89.57;;;27.45;;
30185;SDS011;31152;49.190;8.122;2022-12-18T02:28:59;83.25;;;26.25;;
30185;SDS011;31152;49.190;8.122;2022-12-18T02:31:32;92.32;;;26.17;;
30185;SDS011;31152;49.190;8.122;2022-12-18T02:36:32;78.68;;;23.95;;
30185;SDS011;31152;49.190;8.122;2022-12-18T02:38:59;86.97;;;25.67;;
30185;SDS011;31152;49.190;8.122;2022-12-18T02:41:28;86.53;;;28.65;;
30185;SDS011;31152;49.190;8.122;2022-12-18T02:44:00;81.20;;;26.15;;
30185;SDS011;31152;49.190;8.122;2022-12-18T02:49:03;86.05;;;25.35;;
30185;SDS011;31152;49.190;8.122;2022-12-18T02:51:58;84.57;;;25.73;;
30185;SDS011;31152;49.190;8.122;2022-12-18T02:57:37;83.28;;;25.15;;
30185;SDS011;31152;49.190;8.122;2022-12-18T03:00:28;86.40;;;25.63;;
30185;SDS011;31152;49.190;8.122;2022-12-18T03:03:02;84.40;;;25.77;;
30185;SDS011;31152;49.190;8.122;2022-12-18T03:05:40;84.43;;;25.20;;
30185;SDS011;31152;49.190;8.122;2022-12-18T03:08:21;79.38;;;26.77;;
30185;SDS011;31152;49.190;8.122;2022-12-18T03:11:06;82.07;;;26.92;;
30185;SDS011;31152;49.190;8.122;2022-12-18T03:16:09;97.38;;;27.08;;
30185;SDS011;31152;49.190;8.122;2022-12-18T03:18:44;82.53;;;26.75;;
30185;SDS011;31152;49.190;8.122;2022-12-18T03:21:13;90.88;;;27.20;;
30185;SDS011;31152;49.190;8.122;2022-12-18T03:23:44;87.53;;;25.92;;
30185;SDS011;31152;49.190;8.122;2022-12-18T03:26:16;81.90;;;26.55;;
30185;SDS011;31152;49.190;8.122;2022-12-18T03:28:49;93.57;;;27.15;;
30185;SDS011;31152;49.190;8.122;2022-12-18T03:31:22;87.93;;;27.17;;
30185;SDS011;31152;49.190;8.122;2022-12-18T03:33:54;84.55;;;26.48;;
30185;SDS011;31152;49.190;8.122;2022-12-18T03:36:23;87.60;;;27.35;;
30185;SDS011;31152;49.190;8.122;2022-12-18T03:38:50;87.13;;;26.30;;
30185;SDS011;31152;49.190;8.122;2022-12-18T03:41:31;89.57;;;26.25;;
30185;SDS011;31152;49.190;8.122;2022-12-18T03:44:10;81.22;;;27.60;;
30185;SDS011;31152;49.190;8.122;2022-12-18T03:49:23;97.10;;;28.55;;
30185;SDS011;31152;49.190;8.122;2022-12-18T03:52:20;75.65;;;25.48;;
30185;SDS011;31152;49.190;8.122;2022-12-18T03:54:55;79.15;;;25.20;;
30185;SDS011;31152;49.190;8.122;2022-12-18T03:57:25;92.78;;;27.23;;
30185;SDS011;31152;49.190;8.122;2022-12-18T03:59:55;88.68;;;27.63;;
30185;SDS011;31152;49.190;8.122;2022-12-18T04:02:25;90.82;;;27.73;;
30185;SDS011;31152;49.190;8.122;2022-12-18T04:04:53;84.43;;;27.33;;
30185;SDS011;31152;49.190;8.122;2022-12-18T04:07:24;87.78;;;27.20;;
30185;SDS011;31152;49.190;8.122;2022-12-18T04:09:52;84.57;;;27.52;;
30185;SDS011;31152;49.190;8.122;2022-12-18T04:12:24;83.80;;;26.20;;
30185;SDS011;31152;49.190;8.122;2022-12-18T04:14:52;91.07;;;27.42;;
30185;SDS011;31152;49.190;8.122;2022-12-18T04:17:18;81.78;;;26.67;;
30185;SDS011;31152;49.190;8.122;2022-12-18T04:19:47;94.20;;;28.30;;
30185;SDS011;31152;49.190;8.122;2022-12-18T04:22:19;81.22;;;26.45;;
30185;SDS011;31152;49.190;8.122;2022-12-18T04:24:47;89.32;;;27.30;;
30185;SDS011;31152;49.190;8.122;2022-12-18T04:27:14;86.50;;;26.55;;
30185;SDS011;31152;49.190;8.122;2022-12-18T04:29:41;92.20;;;27.67;;
30185;SDS011;31152;49.190;8.122;2022-12-18T04:32:10;82.45;;;27.25;;
30185;SDS011;31152;49.190;8.122;2022-12-18T04:34:39;89.30;;;27.48;;
30185;SDS011;31152;49.190;8.122;2022-12-18T04:37:05;91.65;;;29.85;;
30185;SDS011;31152;49.190;8.122;2022-12-18T04:39:34;94.15;;;28.30;;
30185;SDS011;31152;49.190;8.122;2022-12-18T04:42:04;90.22;;;27.75;;
30185;SDS011;31152;49.190;8.122;2022-12-18T04:44:31;89.15;;;26.40;;
30185;SDS011;31152;49.190;8.122;2022-12-18T04:46:57;79.25;;;25.63;;
30185;SDS011;31152;49.190;8.122;2022-12-18T04:49:24;82.63;;;28.50;;
30185;SDS011;31152;49.190;8.122;2022-12-18T04:51:55;88.88;;;29.65;;
30185;SDS011;31152;49.190;8.122;2022-12-18T04:54:24;86.07;;;29.65;;
30185;SDS011;31152;49.190;8.122;2022-12-18T04:56:51;87.30;;;27.33;;
30185;SDS011;31152;49.190;8.122;2022-12-18T04:59:18;89.05;;;27.30;;
30185;SDS011;31152;49.190;8.122;2022-12-18T05:01:45;88.80;;;26.70;;
30185;SDS011;31152;49.190;8.122;2022-12-18T05:04:12;83.85;;;27.27;;
30185;SDS011;31152;49.190;8.122;2022-12-18T05:06:39;83.35;;;28.52;;
30185;SDS011;31152;49.190;8.122;2022-12-18T05:09:08;87.25;;;28.75;;
30185;SDS011;31152;49.190;8.122;2022-12-18T05:11:34;94.35;;;29.40;;
30185;SDS011;31152;49.190;8.122;2022-12-18T05:14:01;89.53;;;28.15;;
30185;SDS011;31152;49.190;8.122;2022-12-18T05:16:30;86.07;;;28.33;;
30185;SDS011;31152;49.190;8.122;2022-12-18T05:19:02;81.35;;;28.08;;
30185;SDS011;31152;49.190;8.122;2022-12-18T05:21:32;97.97;;;28.88;;
30185;SDS011;31152;49.190;8.122;2022-12-18T05:23:58;83.30;;;27.65;;
30185;SDS011;31152;49.190;8.122;2022-12-18T05:26:25;81.85;;;27.75;;
30185;SDS011;31152;49.190;8.122;2022-12-18T05:28:54;77.07;;;26.55;;
30185;SDS011;31152;49.190;8.122;2022-12-18T05:31:23;90.10;;;27.20;;
30185;SDS011;31152;49.190;8.122;2022-12-18T05:33:49;88.30;;;28.98;;
30185;SDS011;31152;49.190;8.122;2022-12-18T05:36:16;89.22;;;28.75;;
30185;SDS011;31152;49.190;8.122;2022-12-18T05:38:43;81.57;;;27.67;;
30185;SDS011;31152;49.190;8.122;2022-12-18T05:41:10;85.82;;;27.65;;
30185;SDS011;31152;49.190;8.122;2022-12-18T05:43:37;85.28;;;28.77;;
30185;SDS011;31152;49.190;8.122;2022-12-18T05:46:11;76.78;;;27.05;;
30185;SDS011;31152;49.190;8.122;2022-12-18T05:48:39;84.00;;;28.17;;
30185;SDS011;31152;49.190;8.122;2022-12-18T05:51:09;90.57;;;27.85;;
30185;SDS011;31152;49.190;8.122;2022-12-18T05:53:41;87.55;;;28.90;;
30185;SDS011;31152;49.190;8.122;2022-12-18T05:56:10;95.15;;;28.35;;
30185;SDS011;31152;49.190;8.122;2022-12-18T05:58:41;90.33;;;28.53;;
30185;SDS011;31152;49.190;8.122;2022-12-18T06:01:09;90.78;;;29.05;;
30185;SDS011;31152;49.190;8.122;2022-12-18T06:06:27;87.45;;;27.80;;
30185;SDS011;31152;49.190;8.122;2022-12-18T06:08:55;82.88;;;27.60;;
30185;SDS011;31152;49.190;8.122;2022-12-18T06:11:23;91.53;;;28.90;;
30185;SDS011;31152;49.190;8.122;2022-12-18T06:13:52;94.90;;;29.70;;
30185;SDS011;31152;49.190;8.122;2022-12-18T06:16:23;88.97;;;28.67;;
30185;SDS011;31152;49.190;8.122;2022-12-18T06:18:53;85.50;;;29.15;;
30185;SDS011;31152;49.190;8.122;2022-12-18T06:21:22;88.90;;;30.98;;
30185;SDS011;31152;49.190;8.122;2022-12-18T06:23:49;87.22;;;29.95;;
30185;SDS011;31152;49.190;8.122;2022-12-18T06:26:16;82.75;;;28.73;;
30185;SDS011;31152;49.190;8.122;2022-12-18T06:28:53;87.88;;;30.00;;
30185;SDS011;31152;49.190;8.122;2022-12-18T06:31:20;82.47;;;29.30;;
30185;SDS011;31152;49.190;8.122;2022-12-18T06:33:47;90.57;;;27.90;;
30185;SDS011;31152;49.190;8.122;2022-12-18T06:36:14;89.07;;;30.52;;
30185;SDS011;31152;49.190;8.122;2022-12-18T06:38:41;87.03;;;29.13;;
30185;SDS011;31152;49.190;8.122;2022-12-18T06:41:10;91.68;;;30.20;;
30185;SDS011;31152;49.190;8.122;2022-12-18T06:43:39;84.28;;;29.27;;
30185;SDS011;31152;49.190;8.122;2022-12-18T06:46:06;84.10;;;29.05;;
30185;SDS011;31152;49.190;8.122;2022-12-18T06:48:33;85.40;;;29.83;;
30185;SDS011;31152;49.190;8.122;2022-12-18T06:51:00;89.32;;;30.25;;
30185;SDS011;31152;49.190;8.122;2022-12-18T06:53:27;95.55;;;30.42;;
30185;SDS011;31152;49.190;8.122;2022-12-18T06:56:01;88.65;;;29.38;;
30185;SDS011;31152;49.190;8.122;2022-12-18T06:58:35;85.28;;;29.20;;
30185;SDS011;31152;49.190;8.122;2022-12-18T07:01:03;89.40;;;30.20;;
30185;SDS011;31152;49.190;8.122;2022-12-18T07:03:34;97.25;;;31.77;;
30185;SDS011;31152;49.190;8.122;2022-12-18T07:06:00;94.60;;;30.95;;
30185;SDS011;31152;49.190;8.122;2022-12-18T07:08:28;89.20;;;28.85;;
30185;SDS011;31152;49.190;8.122;2022-12-18T07:10:56;79.13;;;28.55;;
30185;SDS011;31152;49.190;8.122;2022-12-18T07:13:23;83.30;;;29.13;;
30185;SDS011;31152;49.190;8.122;2022-12-18T07:15:50;87.40;;;29.13;;
30185;SDS011;31152;49.190;8.122;2022-12-18T07:18:16;90.10;;;29.02;;
30185;SDS011;31152;49.190;8.122;2022-12-18T07:20:43;83.80;;;30.02;;
30185;SDS011;31152;49.190;8.122;2022-12-18T07:23:13;88.70;;;29.80;;
30185;SDS011;31152;49.190;8.122;2022-12-18T07:25:39;89.13;;;28.80;;
30185;SDS011;31152;49.190;8.122;2022-12-18T07:28:06;92.25;;;30.58;;
30185;SDS011;31152;49.190;8.122;2022-12-18T07:30:39;95.65;;;29.27;;
30185;SDS011;31152;49.190;8.122;2022-12-18T07:33:07;87.60;;;29.92;;
30185;SDS011;31152;49.190;8.122;2022-12-18T07:35:33;84.78;;;29.67;;
30185;SDS011;31152;49.190;8.122;2022-12-18T07:38:00;80.07;;;29.63;;
30185;SDS011;31152;49.190;8.122;2022-12-18T07:40:27;83.07;;;28.60;;
30185;SDS011;31152;49.190;8.122;2022-12-18T07:42:53;84.10;;;28.75;;
30185;SDS011;31152;49.190;8.122;2022-12-18T07:45:20;83.38;;;29.60;;
30185;SDS011;31152;49.190;8.122;2022-12-18T07:47:47;85.05;;;30.52;;
30185;SDS011;31152;49.190;8.122;2022-12-18T07:50:13;89.95;;;29.58;;
30185;SDS011;31152;49.190;8.122;2022-12-18T07:52:40;92.50;;;31.17;;
30185;SDS011;31152;49.190;8.122;2022-12-18T07:55:09;79.45;;;29.15;;
30185;SDS011;31152;49.190;8.122;2022-12-18T07:57:36;80.95;;;29.73;;
30185;SDS011;31152;49.190;8.122;2022-12-18T08:00:23;78.05;;;29.42;;
30185;SDS011;31152;49.190;8.122;2022-12-18T08:02:51;88.00;;;29.92;;
30185;SDS011;31152;49.190;8.122;2022-12-18T08:05:20;84.85;;;29.17;;
30185;SDS011;31152;49.190;8.122;2022-12-18T08:07:49;80.30;;;28.67;;
30185;SDS011;31152;49.190;8.122;2022-12-18T08:10:19;83.25;;;29.02;;
30185;SDS011;31152;49.190;8.122;2022-12-18T08:12:52;82.75;;;27.85;;
30185;SDS011;31152;49.190;8.122;2022-12-18T08:15:30;87.00;;;28.48;;
30185;SDS011;31152;49.190;8.122;2022-12-18T08:17:56;78.20;;;28.80;;
30185;SDS011;31152;49.190;8.122;2022-12-18T08:20:23;82.18;;;28.85;;
30185;SDS011;31152;49.190;8.122;2022-12-18T08:22:50;74.80;;;28.20;;
30185;SDS011;31152;49.190;8.122;2022-12-18T08:25:17;85.43;;;28.65;;
30185;SDS011;31152;49.190;8.122;2022-12-18T08:27:43;79.63;;;28.13;;
30185;SDS011;31152;49.190;8.122;2022-12-18T08:30:10;72.55;;;28.33;;
30185;SDS011;31152;49.190;8.122;2022-12-18T08:32:37;75.40;;;28.50;;
30185;SDS011;31152;49.190;8.122;2022-12-18T08:35:04;81.35;;;29.58;;
30185;SDS011;31152;49.190;8.122;2022-12-18T08:37:31;71.00;;;28.27;;
30185;SDS011;31152;49.190;8.122;2022-12-18T08:40:01;79.38;;;29.55;;
30185;SDS011;31152;49.190;8.122;2022-12-18T08:42:32;76.15;;;28.67;;
30185;SDS011;31152;49.190;8.122;2022-12-18T08:45:17;79.90;;;29.63;;
30185;SDS011;31152;49.190;8.122;2022-12-18T08:47:44;77.22;;;29.40;;
30185;SDS011;31152;49.190;8.122;2022-12-18T08:50:13;74.93;;;28.52;;
30185;SDS011;31152;49.190;8.122;2022-12-18T08:52:41;80.40;;;30.27;;
30185;SDS011;31152;49.190;8.122;2022-12-18T08:55:08;76.43;;;29.75;;
30185;SDS011;31152;49.190;8.122;2022-12-18T08:57:35;70.82;;;27.23;;
30185;SDS011;31152;49.190;8.122;2022-12-18T09:00:03;69.18;;;28.83;;
30185;SDS011;31152;49.190;8.122;2022-12-18T09:02:30;67.03;;;27.60;;
30185;SDS011;31152;49.190;8.122;2022-12-18T09:04:58;67.57;;;28.77;;
30185;SDS011;31152;49.190;8.122;2022-12-18T09:07:24;71.90;;;29.77;;
30185;SDS011;31152;49.190;8.122;2022-12-18T09:09:51;73.85;;;28.92;;
30185;SDS011;31152;49.190;8.122;2022-12-18T09:12:20;66.50;;;27.27;;
30185;SDS011;31152;49.190;8.122;2022-12-18T09:14:50;67.55;;;27.88;;
30185;SDS011;31152;49.190;8.122;2022-12-18T09:17:16;75.07;;;28.75;;
30185;SDS011;31152;49.190;8.122;2022-12-18T09:19:43;72.88;;;28.10;;
30185;SDS011;31152;49.190;8.122;2022-12-18T09:22:10;70.93;;;29.23;;
30185;SDS011;31152;49.190;8.122;2022-12-18T09:24:37;72.15;;;29.20;;
30185;SDS011;31152;49.190;8.122;2022-12-18T09:27:03;68.20;;;29.10;;
30185;SDS011;31152;49.190;8.122;2022-12-18T09:29:30;62.50;;;27.02;;
30185;SDS011;31152;49.190;8.122;2022-12-18T09:31:58;67.53;;;27.20;;
30185;SDS011;31152;49.190;8.122;2022-12-18T09:34:25;69.47;;;28.08;;
30185;SDS011;31152;49.190;8.122;2022-12-18T09:36:51;72.25;;;28.05;;
30185;SDS011;31152;49.190;8.122;2022-12-18T09:39:18;72.03;;;29.10;;
30185;SDS011;31152;49.190;8.122;2022-12-18T09:41:53;70.05;;;28.08;;
30185;SDS011;31152;49.190;8.122;2022-12-18T09:44:27;65.78;;;27.13;;
30185;SDS011;31152;49.190;8.122;2022-12-18T09:47:12;61.97;;;27.38;;
30185;SDS011;31152;49.190;8.122;2022-12-18T09:49:47;66.78;;;26.85;;
30185;SDS011;31152;49.190;8.122;2022-12-18T09:52:20;62.92;;;26.85;;
30185;SDS011;31152;49.190;8.122;2022-12-18T09:54:52;65.35;;;27.88;;
30185;SDS011;31152;49.190;8.122;2022-12-18T09:57:23;62.55;;;26.65;;
30185;SDS011;31152;49.190;8.122;2022-12-18T09:59:53;67.00;;;27.88;;
30185;SDS011;31152;49.190;8.122;2022-12-18T10:02:53;62.92;;;26.42;;
30185;SDS011;31152;49.190;8.122;2022-12-18T10:05:38;63.40;;;26.42;;
30185;SDS011;31152;49.190;8.122;2022-12-18T10:08:17;62.88;;;25.98;;
30185;SDS011;31152;49.190;8.122;2022-12-18T10:10:53;63.22;;;25.33;;
30185;SDS011;31152;49.190;8.122;2022-12-18T10:13:34;67.57;;;27.30;;
30185;SDS011;31152;49.190;8.122;2022-12-18T10:21:15;66.13;;;27.50;;
30185;SDS011;31152;49.190;8.122;2022-12-18T10:23:55;60.72;;;25.77;;
30185;SDS011;31152;49.190;8.122;2022-12-18T10:26:37;64.20;;;26.10;;
30185;SDS011;31152;49.190;8.122;2022-12-18T10:29:11;64.22;;;26.90;;
30185;SDS011;31152;49.190;8.122;2022-12-18T10:31:39;62.40;;;26.70;;
30185;SDS011;31152;49.190;8.122;2022-12-18T10:34:12;62.78;;;26.38;;
30185;SDS011;31152;49.190;8.122;2022-12-18T10:36:39;60.03;;;25.80;;
30185;SDS011;31152;49.190;8.122;2022-12-18T10:39:23;59.67;;;26.45;;
30185;SDS011;31152;49.190;8.122;2022-12-18T10:41:52;61.35;;;26.67;;
30185;SDS011;31152;49.190;8.122;2022-12-18T10:44:45;56.40;;;25.83;;
30185;SDS011;31152;49.190;8.122;2022-12-18T10:47:26;59.90;;;26.92;;
30185;SDS011;31152;49.190;8.122;2022-12-18T10:49:53;60.95;;;28.92;;
30185;SDS011;31152;49.190;8.122;2022-12-18T10:52:24;63.50;;;28.05;;
30185;SDS011;31152;49.190;8.122;2022-12-18T10:55:04;63.67;;;28.90;;
30185;SDS011;31152;49.190;8.122;2022-12-18T10:57:35;65.70;;;29.17;;
30185;SDS011;31152;49.190;8.122;2022-12-18T11:00:20;65.10;;;29.55;;
30185;SDS011;31152;49.190;8.122;2022-12-18T11:02:54;63.40;;;28.52;;
30185;SDS011;31152;49.190;8.122;2022-12-18T11:05:27;65.95;;;29.60;;
30185;SDS011;31152;49.190;8.122;2022-12-18T11:07:55;67.28;;;28.33;;
30185;SDS011;31152;49.190;8.122;2022-12-18T11:10:25;72.40;;;30.38;;
30185;SDS011;31152;49.190;8.122;2022-12-18T11:13:15;57.47;;;26.48;;
30185;SDS011;31152;49.190;8.122;2022-12-18T11:15:44;59.33;;;26.90;;
30185;SDS011;31152;49.190;8.122;2022-12-18T11:18:29;56.42;;;25.90;;
30185;SDS011;31152;49.190;8.122;2022-12-18T11:21:16;58.58;;;26.83;;
30185;SDS011;31152;49.190;8.122;2022-12-18T11:23:52;58.60;;;26.23;;
30185;SDS011;31152;49.190;8.122;2022-12-18T11:26:19;57.97;;;25.75;;
30185;SDS011;31152;49.190;8.122;2022-12-18T11:29:09;57.95;;;26.48;;
30185;SDS011;31152;49.190;8.122;2022-12-18T11:31:45;56.78;;;25.33;;
30185;SDS011;31152;49.190;8.122;2022-12-18T11:34:19;51.25;;;25.67;;
30185;SDS011;31152;49.190;8.122;2022-12-18T11:36:55;52.25;;;25.45;;
30185;SDS011;31152;49.190;8.122;2022-12-18T11:39:34;55.83;;;24.83;;
30185;SDS011;31152;49.190;8.122;2022-12-18T11:44:47;58.20;;;25.52;;
30185;SDS011;31152;49.190;8.122;2022-12-18T11:50:17;58.63;;;24.90;;
30185;SDS011;31152;49.190;8.122;2022-12-18T11:52:48;63.67;;;26.70;;
30185;SDS011;31152;49.190;8.122;2022-12-18T12:01:13;63.97;;;26.45;;
30185;SDS011;31152;49.190;8.122;2022-12-18T12:23:40;68.22;;;24.95;;
30185;SDS011;31152;49.190;8.122;2022-12-18T12:29:07;66.78;;;25.40;;
30185;SDS011;31152;49.190;8.122;2022-12-18T12:31:49;69.40;;;26.92;;
30185;SDS011;31152;49.190;8.122;2022-12-18T12:40:26;63.50;;;27.02;;
30185;SDS011;31152;49.190;8.122;2022-12-18T12:43:22;64.55;;;26.48;;
30185;SDS011;31152;49.190;8.122;2022-12-18T12:46:17;69.18;;;26.40;;
30185;SDS011;31152;49.190;8.122;2022-12-18T12:48:48;71.38;;;28.02;;
30185;SDS011;31152;49.190;8.122;2022-12-18T12:51:20;65.63;;;27.38;;
30185;SDS011;31152;49.190;8.122;2022-12-18T12:53:53;67.93;;;26.75;;
30185;SDS011;31152;49.190;8.122;2022-12-18T12:56:22;73.28;;;29.92;;
30185;SDS011;31152;49.190;8.122;2022-12-18T12:59:18;70.90;;;28.30;;
30185;SDS011;31152;49.190;8.122;2022-12-18T13:05:01;69.57;;;26.75;;
30185;SDS011;31152;49.190;8.122;2022-12-18T13:10:38;64.28;;;27.60;;
30185;SDS011;31152;49.190;8.122;2022-12-18T13:13:10;66.95;;;26.23;;
30185;SDS011;31152;49.190;8.122;2022-12-18T13:16:07;68.00;;;26.17;;
30185;SDS011;31152;49.190;8.122;2022-12-18T13:18:34;65.88;;;27.63;;
30185;SDS011;31152;49.190;8.122;2022-12-18T13:21:04;67.72;;;26.98;;
30185;SDS011;31152;49.190;8.122;2022-12-18T13:23:47;63.58;;;26.70;;
30185;SDS011;31152;49.190;8.122;2022-12-18T13:28:54;70.32;;;27.02;;
30185;SDS011;31152;49.190;8.122;2022-12-18T13:36:55;75.40;;;28.05;;
30185;SDS011;31152;49.190;8.122;2022-12-18T13:39:43;63.83;;;28.10;;
30185;SDS011;31152;49.190;8.122;2022-12-18T13:44:59;65.97;;;27.60;;
30185;SDS011;31152;49.190;8.122;2022-12-18T13:47:36;71.15;;;28.65;;
30185;SDS011;31152;49.190;8.122;2022-12-18T13:50:17;65.20;;;26.02;;
30185;SDS011;31152;49.190;8.122;2022-12-18T13:52:49;78.40;;;28.77;;
30185;SDS011;31152;49.190;8.122;2022-12-18T13:55:18;78.35;;;30.70;;
30185;SDS011;31152;49.190;8.122;2022-12-18T13:57:46;77.88;;;29.35;;
30185;SDS011;31152;49.190;8.122;2022-12-18T14:00:26;70.38;;;27.95;;
30185;SDS011;31152;49.190;8.122;2022-12-18T14:02:57;69.50;;;28.83;;
30185;SDS011;31152;49.190;8.122;2022-12-18T14:07:59;74.22;;;29.58;;
30185;SDS011;31152;49.190;8.122;2022-12-18T14:10:32;77.53;;;30.55;;
30185;SDS011;31152;49.190;8.122;2022-12-18T14:13:22;80.95;;;30.23;;
30185;SDS011;31152;49.190;8.122;2022-12-18T14:16:04;78.05;;;29.83;;
30185;SDS011;31152;49.190;8.122;2022-12-18T14:21:19;81.13;;;30.10;;
30185;SDS011;31152;49.190;8.122;2022-12-18T14:24:14;87.55;;;33.40;;
30185;SDS011;31152;49.190;8.122;2022-12-18T14:26:46;87.53;;;31.85;;
30185;SDS011;31152;49.190;8.122;2022-12-18T14:32:04;85.80;;;32.20;;
30185;SDS011;31152;49.190;8.122;2022-12-18T14:34:49;86.07;;;31.45;;
30185;SDS011;31152;49.190;8.122;2022-12-18T14:37:20;90.18;;;31.55;;
30185;SDS011;31152;49.190;8.122;2022-12-18T14:39:55;80.75;;;32.40;;
30185;SDS011;31152;49.190;8.122;2022-12-18T14:42:36;80.32;;;31.00;;
30185;SDS011;31152;49.190;8.122;2022-12-18T14:48:11;84.00;;;32.25;;
30185;SDS011;31152;49.190;8.122;2022-12-18T14:50:58;75.45;;;30.63;;
30185;SDS011;31152;49.190;8.122;2022-12-18T14:53:42;84.65;;;31.80;;
30185;SDS011;31152;49.190;8.122;2022-12-18T14:56:23;83.90;;;31.45;;
30185;SDS011;31152;49.190;8.122;2022-12-18T15:01:26;81.45;;;31.23;;
30185;SDS011;31152;49.190;8.122;2022-12-18T15:03:58;79.22;;;30.13;;
30185;SDS011;31152;49.190;8.122;2022-12-18T15:06:27;82.65;;;31.10;;
30185;SDS011;31152;49.190;8.122;2022-12-18T15:08:57;85.80;;;31.92;;
30185;SDS011;31152;49.190;8.122;2022-12-18T15:11:29;82.22;;;31.73;;
30185;SDS011;31152;49.190;8.122;2022-12-18T15:14:21;82.82;;;31.00;;
30185;SDS011;31152;49.190;8.122;2022-12-18T15:16:52;80.57;;;30.98;;
30185;SDS011;31152;49.190;8.122;2022-12-18T15:19:27;80.90;;;30.77;;
30185;SDS011;31152;49.190;8.122;2022-12-18T15:22:14;85.60;;;31.95;;
30185;SDS011;31152;49.190;8.122;2022-12-18T15:25:20;93.78;;;33.35;;
30185;SDS011;31152;49.190;8.122;2022-12-18T15:28:00;89.50;;;32.58;;
30185;SDS011;31152;49.190;8.122;2022-12-18T15:30:31;94.65;;;33.60;;
30185;SDS011;31152;49.190;8.122;2022-12-18T15:35:58;86.50;;;33.33;;
30185;SDS011;31152;49.190;8.122;2022-12-18T15:38:27;89.57;;;33.40;;
30185;SDS011;31152;49.190;8.122;2022-12-18T15:40:54;85.15;;;32.45;;
30185;SDS011;31152;49.190;8.122;2022-12-18T15:43:24;83.00;;;32.13;;
30185;SDS011;31152;49.190;8.122;2022-12-18T15:46:05;82.38;;;31.05;;
30185;SDS011;31152;49.190;8.122;2022-12-18T15:48:41;82.72;;;32.50;;
30185;SDS011;31152;49.190;8.122;2022-12-18T15:51:15;96.55;;;33.50;;
30185;SDS011;31152;49.190;8.122;2022-12-18T15:53:42;90.20;;;34.35;;
30185;SDS011;31152;49.190;8.122;2022-12-18T15:56:10;85.68;;;32.28;;
30185;SDS011;31152;49.190;8.122;2022-12-18T15:58:57;90.43;;;33.70;;
30185;SDS011;31152;49.190;8.122;2022-12-18T16:01:28;92.95;;;36.10;;
30185;SDS011;31152;49.190;8.122;2022-12-18T16:03:57;95.68;;;33.72;;
30185;SDS011;31152;49.190;8.122;2022-12-18T16:06:24;93.55;;;34.40;;
30185;SDS011;31152;49.190;8.122;2022-12-18T16:08:50;92.85;;;33.60;;
30185;SDS011;31152;49.190;8.122;2022-12-18T16:11:27;80.70;;;31.80;;
30185;SDS011;31152;49.190;8.122;2022-12-18T16:14:16;86.90;;;32.90;;
30185;SDS011;31152;49.190;8.122;2022-12-18T16:16:48;87.75;;;31.83;;
30185;SDS011;31152;49.190;8.122;2022-12-18T16:19:17;86.72;;;32.85;;
30185;SDS011;31152;49.190;8.122;2022-12-18T16:21:45;86.03;;;34.10;;
30185;SDS011;31152;49.190;8.122;2022-12-18T16:24:22;88.10;;;32.85;;
30185;SDS011;31152;49.190;8.122;2022-12-18T16:26:53;93.45;;;33.22;;
30185;SDS011;31152;49.190;8.122;2022-12-18T16:29:20;86.70;;;33.13;;
30185;SDS011;31152;49.190;8.122;2022-12-18T16:31:50;81.50;;;30.77;;
30185;SDS011;31152;49.190;8.122;2022-12-18T16:34:28;85.93;;;31.58;;
30185;SDS011;31152;49.190;8.122;2022-12-18T16:37:05;80.25;;;30.05;;